Left Hand, West Virginia
Current Conditions -  °F | °C
As of 5:54 PM on Friday 19 Dec 2014 (Local Time) from KCRW Reporting Station
Overcast Overcast  
Wind Chill: 31°   Ceiling: 2300
Heat Index: 31°   Visibility: 10mi
Dew Point: 21°   Wind: 3mph
Humidity: 67%   Direction: 10°N
Pressure: 30.27"   Gusts: NA
Location:  38.61°N, 81.25°W
Report Text: KCRW 192254Z 01003KT 10SM OVC023 M01/M06 A3027 RMK AO2 SLP259 T10061061
Loading
Personal Weather Stations






























Interactive Weather Map New forecast layout! Learn more

10-Day Weather Forecast

Advertisements
Track Severe Weather on mobile